Time,TemperatureF,DewpointF,PressureIn,WindDirection,WindDirectionDegrees,WindSpeedMPH,WindSpeedGustMPH,Humidity,HourlyPrecipIn,Conditions,Clouds,dailyrainin,SoftwareType,DateUTC
2013-05-09 00:00:00,48.0,39.8,29.50,SE,145,11.5,11.5,73,0.00,FEW,,0.30,WeatherDisplay:10.37,2013-05-08 23:00:00,
2013-05-09 00:05:00,48.0,39.8,29.50,SE,145,8.1,8.1,73,0.00,RA,FEW,0.00,WeatherDisplay:10.37,2013-05-08 23:05:00,
2013-05-09 00:10:00,48.0,39.8,29.50,SE,145,8.1,8.1,73,0.00,BKN,FEW,0.00,WeatherDisplay:10.37,2013-05-08 23:10:00,
2013-05-09 00:15:00,48.0,40.1,29.50,SE,145,16.1,16.1,74,0.00,BKN,FEW,0.00,WeatherDisplay:10.37,2013-05-08 23:15:00,
2013-05-09 00:20:00,48.0,40.1,29.50,SE,145,8.1,8.1,74,0.00,BKN,FEW,0.00,WeatherDisplay:10.37,2013-05-08 23:20:00,
2013-05-09 00:25:00,47.8,39.6,29.50,ESE,122,16.1,16.1,73,0.00,BKN,FEW,0.00,WeatherDisplay:10.37,2013-05-08 23:25:00,
2013-05-09 00:30:00,47.8,39.6,29.50,SE,145,14.9,14.9,73,0.00,BKN,FEW,0.00,WeatherDisplay:10.37,2013-05-08 23:30:00,
2013-05-09 00:35:00,47.7,39.4,29.50,SE,145,12.7,12.7,73,0.00,BKN,FEW,0.00,WeatherDisplay:10.37,2013-05-08 23:35:00,
2013-05-09 00:40:00,47.7,39.4,29.50,SE,145,10.0,10.0,73,0.00,BKN,FEW,0.00,WeatherDisplay:10.37,2013-05-08 23:40:00,
2013-05-09 00:45:00,47.7,39.4,29.50,East,100,12.7,12.7,73,0.00,BKN,FEW,0.00,WeatherDisplay:10.37,2013-05-08 23:45:00,
2013-05-09 00:50:00,47.7,39.4,29.50,ESE,122,11.5,11.5,73,0.00,BKN,FEW,0.00,WeatherDisplay:10.37,2013-05-08 23:50:00,
2013-05-09 00:55:00,47.7,39.4,29.50,ESE,122,13.8,13.8,73,0.00,BKN,FEW,0.00,WeatherDisplay:10.37,2013-05-08 23:55:00,
2013-05-09 01:00:00,47.7,39.4,29.50,WSW,258,9.2,9.2,73,0.00,BKN,FEW,0.00,WeatherDisplay:10.37,2013-05-09 00:00:00,
2013-05-09 01:05:00,47.7,39.4,29.48,SE,145,12.7,12.7,73,0.00,BKN,FEW,0.00,WeatherDisplay:10.37,2013-05-09 00:05:00,
2013-05-09 01:10:00,47.7,39.1,29.48,SE,145,12.7,12.7,72,0.00,BKN,FEW,0.00,WeatherDisplay:10.37,2013-05-09 00:10:00,
2013-05-09 01:15:00,47.7,39.4,29.48,ESE,122,11.5,11.5,73,0.00,BKN,FEW,0.00,WeatherDisplay:10.37,2013-05-09 00:15:00,
2013-05-09 01:20:00,47.7,39.1,29.48,SE,145,12.7,12.7,72,0.00,BKN,FEW,0.00,WeatherDisplay:10.37,2013-05-09 00:20:00,
2013-05-09 01:25:00,47.5,38.9,29.48,SE,145,19.6,19.6,72,0.00,BKN,FEW,0.00,WeatherDisplay:10.37,2013-05-09 00:25:00,
2013-05-09 01:30:00,47.7,39.4,29.48,SE,145,16.1,16.1,73,0.00,BKN,FEW,0.00,WeatherDisplay:10.37,2013-05-09 00:30:00,
2013-05-09 01:35:00,47.5,39.3,29.48,ESE,122,11.5,11.5,73,0.00,BKN,FEW,0.00,WeatherDisplay:10.37,2013-05-09 00:35:00,
2013-05-09 01:40:00,47.7,39.4,29.47,SE,145,16.1,16.1,73,0.00,BKN,FEW,0.00,WeatherDisplay:10.37,2013-05-09 00:40:00,
2013-05-09 01:45:00,47.7,39.4,29.47,SE,145,9.2,9.2,73,0.00,BKN,FEW,0.00,WeatherDisplay:10.37,2013-05-09 00:45:00,
2013-05-09 01:50:00,47.5,39.3,29.47,ESE,122,11.5,11.5,73,0.00,BKN,FEW,0.00,WeatherDisplay:10.37,2013-05-09 00:50:00,
2013-05-09 01:55:00,47.5,39.3,29.47,SE,145,12.7,12.7,73,0.00,BKN,FEW,0.00,WeatherDisplay:10.37,2013-05-09 00:55:00,
2013-05-09 02:00:00,47.5,39.3,29.46,SE,145,14.1,14.1,73,0.00,BKN,FEW,0.00,WeatherDisplay:10.37,2013-05-09 01:00:00,
2013-05-09 02:05:00,47.7,39.4,29.46,SE,145,17.3,17.3,73,0.00,BKN,FEW,0.00,WeatherDisplay:10.37,2013-05-09 01:05:00,
2013-05-09 02:10:00,47.7,39.4,29.46,SE,145,9.2,9.7,73,0.00,BKN,FEW,0.00,WeatherDisplay:10.37,2013-05-09 01:10:00,
2013-05-09 02:15:00,47.7,39.4,29.46,ESE,122,13.8,13.8,73,0.00,BKN,FEW,0.00,WeatherDisplay:10.37,2013-05-09 01:15:00,
2013-05-09 02:20:00,47.7,39.4,29.44,ESE,122,13.8,13.8,73,0.00,BKN,FEW,0.00,WeatherDisplay:10.37,2013-05-09 01:20:00,
2013-05-09 02:25:00,47.5,39.3,29.44,ESE,122,6.9,8.3,73,0.00,BKN,FEW,0.00,WeatherDisplay:10.37,2013-05-09 01:25:00,
2013-05-09 02:31:00,47.7,39.1,29.44,SE,145,19.6,19.6,72,0.00,BKN,FEW,0.00,WeatherDisplay:10.37,2013-05-09 01:31:00,
2013-05-09 02:36:00,47.7,39.1,29.44,SSE,168,5.8,8.0,72,0.00,BKN,FEW,0.00,WeatherDisplay:10.37,2013-05-09 01:36:00,
2013-05-09 02:41:00,47.7,39.1,29.44,SE,145,19.7,19.7,72,0.00,BKN,FEW,0.00,WeatherDisplay:10.37,2013-05-09 01:41:00,
2013-05-09 02:46:00,47.7,39.1,29.44,SE,145,10.4,10.4,72,0.00,BKN,FEW,0.00,WeatherDisplay:10.37,2013-05-09 01:46:00,
2013-05-09 02:51:00,47.7,39.4,29.44,SE,145,15.0,15.0,73,0.00,BKN,FEW,0.00,WeatherDisplay:10.37,2013-05-09 01:51:00,
2013-05-09 02:56:00,47.7,39.4,29.44,SE,145,10.4,10.4,73,0.00,BKN,FEW,0.00,WeatherDisplay:10.37,2013-05-09 01:56:00,
2013-05-09 03:01:00,47.7,39.4,29.43,SE,145,13.8,13.8,73,0.00,BKN,FEW,0.00,WeatherDisplay:10.37,2013-05-09 02:01:00,
2013-05-09 03:06:00,47.7,39.4,29.43,SE,145,9.5,9.5,73,0.00,BKN,FEW,0.00,WeatherDisplay:10.37,2013-05-09 02:06:00,
2013-05-09 03:11:00,47.7,39.4,29.43,SE,145,9.2,9.2,73,0.00,BKN,FEW,0.00,WeatherDisplay:10.37,2013-05-09 02:11:00,
2013-05-09 03:16:00,48.0,39.8,29.43,SE,145,12.0,12.0,73,0.00,BKN,FEW,0.00,WeatherDisplay:10.37,2013-05-09 02:16:00,
2013-05-09 03:21:00,47.8,39.2,29.42,SE,145,16.1,16.1,72,0.00,BKN,FEW,0.00,WeatherDisplay:10.37,2013-05-09 02:21:00,
2013-05-09 03:26:00,48.0,39.4,29.42,SE,145,12.7,12.7,72,0.00,BKN,FEW,0.00,WeatherDisplay:10.37,2013-05-09 02:26:00,
2013-05-09 03:31:00,48.2,39.6,29.42,SE,145,17.3,17.3,72,0.00,BKN,FEW,0.00,WeatherDisplay:10.37,2013-05-09 02:31:00,
2013-05-09 03:36:00,48.0,39.4,29.42,ESE,122,18.4,18.4,72,0.00,BKN,FEW,0.00,WeatherDisplay:10.37,2013-05-09 02:36:00,
2013-05-09 03:41:00,48.0,39.4,29.41,ESE,122,16.1,16.1,72,0.00,BKN,FEW,0.00,WeatherDisplay:10.37,2013-05-09 02:41:00,
2013-05-09 03:46:00,48.0,39.1,29.41,SE,145,17.3,17.3,71,0.00,BKN,FEW,0.00,WeatherDisplay:10.37,2013-05-09 02:46:00,
2013-05-09 03:51:00,48.0,39.4,29.41,SE,145,12.7,12.7,72,0.00,BKN,FEW,0.00,WeatherDisplay:10.37,2013-05-09 02:51:00,
2013-05-09 03:56:00,48.0,39.8,29.41,ESE,122,8.1,8.3,73,0.00,BKN,FEW,0.00,WeatherDisplay:10.37,2013-05-09 02:56:00,
2013-05-09 04:01:00,47.8,39.6,29.39,ESE,122,10.4,10.4,73,0.00,BKN,FEW,0.00,WeatherDisplay:10.37,2013-05-09 03:01:00,
2013-05-09 04:06:00,47.8,40.0,29.39,ESE,122,9.2,9.2,74,0.00,BKN,FEW,0.00,WeatherDisplay:10.37,2013-05-09 03:06:00,
2013-05-09 04:11:00,47.7,39.8,29.39,SE,145,13.8,13.8,74,0.00,BKN,FEW,0.00,WeatherDisplay:10.37,2013-05-09 03:11:00,
2013-05-09 04:16:00,47.7,40.1,29.39,SE,145,9.2,9.2,75,0.00,BKN,FEW,0.00,WeatherDisplay:10.37,2013-05-09 03:16:00,
2013-05-09 04:21:00,47.7,40.1,29.38,ESE,122,12.7,12.7,75,0.00,BKN,FEW,0.00,WeatherDisplay:10.37,2013-05-09 03:21:00,
2013-05-09 04:26:00,47.7,40.5,29.38,SE,145,9.9,9.9,76,0.00,BKN,FEW,0.00,WeatherDisplay:10.37,2013-05-09 03:26:00,
2013-05-09 04:31:00,47.5,40.6,29.38,SE,145,12.7,12.7,77,0.00,BKN,FEW,0.00,WeatherDisplay:10.37,2013-05-09 03:31:00,
2013-05-09 04:36:00,47.5,40.6,29.38,SE,145,8.1,8.1,77,0.00,BKN,FEW,0.00,WeatherDisplay:10.37,2013-05-09 03:36:00,
2013-05-09 04:41:00,47.3,40.8,29.37,East,100,10.4,10.4,78,0.00,BKN,FEW,0.00,WeatherDisplay:10.37,2013-05-09 03:41:00,
2013-05-09 04:46:00,47.3,41.1,29.37,SE,145,18.6,18.6,79,0.00,BKN,FEW,0.00,WeatherDisplay:10.37,2013-05-09 03:46:00,
2013-05-09 04:51:00,47.1,40.9,29.37,SE,145,13.8,13.8,79,0.00,BKN,FEW,0.00,WeatherDisplay:10.37,2013-05-09 03:51:00,
2013-05-09 04:56:00,47.1,41.3,29.37,SE,145,10.4,10.4,80,0.00,BKN,FEW,0.00,WeatherDisplay:10.37,2013-05-09 03:56:00,
2013-05-09 05:01:00,47.1,40.9,29.36,ESE,122,10.4,10.4,79,0.00,-RA,FEW,0.00,WeatherDisplay:10.37,2013-05-09 04:01:00,
2013-05-09 05:06:00,47.3,41.1,29.36,SE,145,9.2,9.2,79,0.00,-RA,FEW,0.00,WeatherDisplay:10.37,2013-05-09 04:06:00,
2013-05-09 05:11:00,47.1,40.9,29.36,ESE,122,12.7,12.7,79,0.00,-RA,FEW,0.00,WeatherDisplay:10.37,2013-05-09 04:11:00,
2013-05-09 05:16:00,46.9,41.1,29.36,SE,145,10.4,10.4,80,0.00,-RA,FEW,0.00,WeatherDisplay:10.37,2013-05-09 04:16:00,
2013-05-09 05:21:00,47.1,41.3,29.34,SE,145,12.7,12.7,80,0.00,-RA,FEW,0.00,WeatherDisplay:10.37,2013-05-09 04:21:00,
2013-05-09 05:26:00,47.3,41.4,29.34,SE,145,11.5,11.5,80,0.00,-RA,FEW,0.00,WeatherDisplay:10.37,2013-05-09 04:26:00,
2013-05-09 05:31:00,47.1,41.3,29.34,ESE,122,16.1,16.1,80,0.00,-RA,FEW,0.00,WeatherDisplay:10.37,2013-05-09 04:31:00,
2013-05-09 05:36:00,47.1,41.6,29.34,SE,145,15.9,15.9,81,0.00,-RA,FEW,0.00,WeatherDisplay:10.37,2013-05-09 04:36:00,
2013-05-09 05:41:00,46.9,41.4,29.33,SE,145,10.4,10.4,81,0.00,-RA,FEW,0.00,WeatherDisplay:10.37,2013-05-09 04:41:00,
2013-05-09 05:46:00,46.9,41.7,29.33,SE,145,11.5,11.5,82,0.00,-RA,FEW,0.00,WeatherDisplay:10.37,2013-05-09 04:46:00,
2013-05-09 05:51:00,46.8,41.6,29.33,SE,145,8.1,8.1,82,0.00,-RA,FEW,0.00,WeatherDisplay:10.37,2013-05-09 04:51:00,
2013-05-09 05:56:00,46.8,41.6,29.33,SE,145,7.0,7.0,82,0.00,-RA,FEW,0.00,WeatherDisplay:10.37,2013-05-09 04:56:00,
2013-05-09 06:01:00,46.8,41.9,29.31,SE,145,8.5,8.5,83,0.00,BKN,FEW,0.00,WeatherDisplay:10.37,2013-05-09 05:01:00,
2013-05-09 06:06:00,46.8,41.9,29.31,ESE,122,11.5,11.5,83,0.00,BKN,FEW,0.00,WeatherDisplay:10.37,2013-05-09 05:06:00,
2013-05-09 06:12:00,46.8,41.9,29.31,ESE,122,11.5,11.5,83,0.00,BKN,FEW,0.00,WeatherDisplay:10.37,2013-05-09 05:12:00,
2013-05-09 06:17:00,46.9,42.0,29.31,ESE,122,13.8,13.8,83,0.00,BKN,FEW,0.00,WeatherDisplay:10.37,2013-05-09 05:17:00,
2013-05-09 06:22:00,46.9,41.7,29.31,SE,145,5.8,8.6,82,0.00,BKN,FEW,0.00,WeatherDisplay:10.37,2013-05-09 05:22:00,
2013-05-09 06:27:00,47.1,41.9,29.31,SE,145,9.2,9.2,82,0.00,BKN,FEW,0.00,WeatherDisplay:10.37,2013-05-09 05:27:00,
2013-05-09 06:32:00,47.3,42.1,29.31,SE,145,10.4,10.4,82,0.00,BKN,FEW,0.00,WeatherDisplay:10.37,2013-05-09 05:32:00,
2013-05-09 06:37:00,47.1,42.2,29.31,SE,145,12.7,12.7,83,0.00,BKN,FEW,0.00,WeatherDisplay:10.37,2013-05-09 05:37:00,
2013-05-09 06:42:00,47.1,42.2,29.31,SE,145,6.9,8.1,83,0.00,BKN,FEW,0.00,WeatherDisplay:10.37,2013-05-09 05:42:00,
2013-05-09 06:47:00,47.1,42.5,29.31,ESE,122,9.2,9.2,84,0.00,BKN,FEW,0.00,WeatherDisplay:10.37,2013-05-09 05:47:00,
2013-05-09 06:52:00,47.1,42.5,29.31,SE,145,12.7,12.7,84,0.00,BKN,FEW,0.00,WeatherDisplay:10.37,2013-05-09 05:52:00,
2013-05-09 06:57:00,47.1,42.5,29.31,SE,145,12.7,12.7,84,0.00,BKN,FEW,0.00,WeatherDisplay:10.37,2013-05-09 05:57:00,
2013-05-09 07:02:00,47.3,42.7,29.28,SE,145,5.8,7.7,84,0.00,-RA,FEW,0.00,WeatherDisplay:10.37,2013-05-09 06:02:00,
2013-05-09 07:07:00,47.3,42.7,29.28,ESE,122,9.3,9.3,84,0.00,-RA,FEW,0.00,WeatherDisplay:10.37,2013-05-09 06:07:00,
2013-05-09 07:12:00,47.7,43.1,29.28,SE,145,10.7,10.7,84,0.00,-RA,FEW,0.00,WeatherDisplay:10.37,2013-05-09 06:12:00,
2013-05-09 07:17:00,47.5,42.9,29.28,ESE,122,11.5,11.5,84,0.00,-RA,FEW,0.00,WeatherDisplay:10.37,2013-05-09 06:17:00,
2013-05-09 07:22:00,47.7,43.1,29.28,SE,145,12.7,12.7,84,0.00,-RA,FEW,0.00,WeatherDisplay:10.37,2013-05-09 06:22:00,
2013-05-09 07:27:00,47.8,42.9,29.28,SE,145,5.8,6.0,83,0.00,-RA,FEW,0.00,WeatherDisplay:10.37,2013-05-09 06:27:00,
2013-05-09 07:32:00,47.8,42.9,29.28,ESE,122,11.5,11.5,83,0.00,-RA,FEW,0.00,WeatherDisplay:10.37,2013-05-09 06:32:00,
2013-05-09 07:37:00,47.8,42.9,29.28,SE,145,9.2,9.2,83,0.00,-RA,FEW,0.00,WeatherDisplay:10.37,2013-05-09 06:37:00,
2013-05-09 07:42:00,48.0,43.1,29.26,ESE,122,6.9,6.9,83,0.00,-RA,FEW,0.00,WeatherDisplay:10.37,2013-05-09 06:42:00,
2013-05-09 07:47:00,48.2,43.3,29.26,SE,145,10.4,10.4,83,0.00,-RA,FEW,0.00,WeatherDisplay:10.37,2013-05-09 06:47:00,
2013-05-09 07:52:00,48.4,43.5,29.26,SE,145,5.8,6.9,83,0.00,-RA,FEW,0.00,WeatherDisplay:10.37,2013-05-09 06:52:00,
2013-05-09 07:57:00,48.4,43.5,29.26,SE,145,12.7,12.7,83,0.00,-RA,FEW,0.00,WeatherDisplay:10.37,2013-05-09 06:57:00,
2013-05-09 08:02:00,48.2,43.6,29.26,SE,145,11.5,11.5,84,0.00,-RA,FEW,0.00,WeatherDisplay:10.37,2013-05-09 07:02:00,
2013-05-09 08:07:00,48.0,43.4,29.26,ESE,122,10.6,10.6,84,0.00,-RA,FEW,0.00,WeatherDisplay:10.37,2013-05-09 07:07:00,
2013-05-09 08:12:00,48.0,43.4,29.26,SE,145,10.4,10.4,84,0.00,-RA,FEW,0.00,WeatherDisplay:10.37,2013-05-09 07:12:00,
2013-05-09 08:17:00,48.4,43.8,29.26,SE,145,13.8,13.8,84,0.00,-RA,FEW,0.00,WeatherDisplay:10.37,2013-05-09 07:17:00,
2013-05-09 08:22:00,48.4,43.8,29.25,ESE,122,12.7,12.7,84,0.00,-RA,FEW,0.00,WeatherDisplay:10.37,2013-05-09 07:22:00,
2013-05-09 08:27:00,48.4,43.8,29.25,ESE,122,16.1,16.1,84,0.00,-RA,FEW,0.00,WeatherDisplay:10.37,2013-05-09 07:27:00,
2013-05-09 08:32:00,48.2,43.6,29.25,ESE,122,11.5,11.5,84,0.00,-RA,FEW,0.00,WeatherDisplay:10.37,2013-05-09 07:32:00,
2013-05-09 08:37:00,47.8,43.2,29.25,ESE,122,9.2,9.2,84,0.00,-RA,FEW,0.00,WeatherDisplay:10.37,2013-05-09 07:37:00,
2013-05-09 08:42:00,48.0,43.1,29.24,SE,145,15.0,15.0,83,0.00,-RA,FEW,0.00,WeatherDisplay:10.37,2013-05-09 07:42:00,
2013-05-09 08:47:00,48.0,43.1,29.24,SE,145,17.3,17.3,83,0.00,-RA,FEW,0.00,WeatherDisplay:10.37,2013-05-09 07:47:00,
2013-05-09 08:52:00,48.0,43.1,29.24,ESE,122,9.2,9.2,83,0.00,-RA,FEW,0.00,WeatherDisplay:10.37,2013-05-09 07:52:00,
2013-05-09 08:57:00,48.4,43.5,29.24,SE,145,12.7,12.7,83,0.00,-RA,FEW,0.00,WeatherDisplay:10.37,2013-05-09 07:57:00,
2013-05-09 09:02:00,48.4,43.5,29.22,SE,145,9.2,9.2,83,0.00,-RA,FEW,0.00,WeatherDisplay:10.37,2013-05-09 08:02:00,
2013-05-09 09:07:00,48.4,43.5,29.22,SE,145,13.8,13.8,83,0.00,-RA,FEW,0.00,WeatherDisplay:10.37,2013-05-09 08:07:00,
2013-05-09 09:12:00,48.4,43.5,29.22,SE,145,12.7,12.7,83,0.00,-RA,FEW,0.00,WeatherDisplay:10.37,2013-05-09 08:12:00,
2013-05-09 09:17:00,48.4,43.1,29.22,SE,145,11.5,11.5,82,0.00,-RA,FEW,0.00,WeatherDisplay:10.37,2013-05-09 08:17:00,
2013-05-09 09:22:00,48.4,43.1,29.22,SE,145,4.6,7.8,82,0.00,-RA,FEW,0.00,WeatherDisplay:10.37,2013-05-09 08:22:00,
2013-05-09 09:27:00,48.4,43.5,29.22,SE,145,11.5,11.5,83,0.00,-RA,FEW,0.00,WeatherDisplay:10.37,2013-05-09 08:27:00,
2013-05-09 09:32:00,48.4,43.5,29.22,SE,145,11.5,11.5,83,0.00,-RA,FEW,0.00,WeatherDisplay:10.37,2013-05-09 08:32:00,
2013-05-09 09:37:00,48.4,43.8,29.22,SE,145,8.1,8.1,84,0.00,-RA,FEW,0.00,WeatherDisplay:10.37,2013-05-09 08:37:00,
2013-05-09 09:42:00,48.4,43.8,29.21,SE,145,5.8,5.8,84,0.00,-RA,FEW,0.00,WeatherDisplay:10.37,2013-05-09 08:42:00,
2013-05-09 09:47:00,48.4,43.8,29.21,SE,145,10.4,10.4,84,0.00,-RA,FEW,0.00,WeatherDisplay:10.37,2013-05-09 08:47:00,
2013-05-09 09:52:00,48.6,43.9,29.21,SE,145,6.9,6.9,84,0.00,-RA,FEW,0.00,WeatherDisplay:10.37,2013-05-09 08:52:00,
2013-05-09 09:57:00,48.6,43.9,29.21,ESE,122,10.4,10.4,84,0.00,-RA,FEW,0.00,WeatherDisplay:10.37,2013-05-09 08:57:00,
2013-05-09 10:02:00,48.4,44.1,29.19,ESE,122,5.8,6.3,85,0.00,-RA,FEW,0.00,WeatherDisplay:10.37,2013-05-09 09:02:00,
2013-05-09 10:07:00,48.4,44.1,29.19,ESE,122,8.1,8.1,85,0.00,-RA,FEW,0.00,WeatherDisplay:10.37,2013-05-09 09:07:00,
2013-05-09 10:12:00,48.2,44.2,29.19,SE,145,8.1,8.1,86,0.00,-RA,FEW,0.00,WeatherDisplay:10.37,2013-05-09 09:12:00,
2013-05-09 10:17:00,48.4,44.4,29.19,East,100,8.1,8.1,86,0.00,-RA,FEW,0.00,WeatherDisplay:10.37,2013-05-09 09:17:00,
2013-05-09 10:22:00,48.4,44.7,29.19,SE,145,9.2,9.2,87,0.00,-RA,FEW,0.00,WeatherDisplay:10.37,2013-05-09 09:22:00,
2013-05-09 10:27:00,48.6,44.9,29.19,SE,145,6.9,6.9,87,0.00,-RA,FEW,0.00,WeatherDisplay:10.37,2013-05-09 09:27:00,
2013-05-09 10:32:00,48.7,45.0,29.19,SE,145,8.1,8.1,87,0.00,-RA,FEW,0.00,WeatherDisplay:10.37,2013-05-09 09:32:00,
2013-05-09 10:37:00,49.1,45.4,29.19,SE,145,5.8,5.8,87,0.00,-RA,FEW,0.00,WeatherDisplay:10.37,2013-05-09 09:37:00,
2013-05-09 10:42:00,49.5,45.8,29.18,ESE,122,9.2,9.2,87,0.00,-RA,FEW,0.00,WeatherDisplay:10.37,2013-05-09 09:42:00,
2013-05-09 10:47:00,49.8,46.1,29.18,SE,145,5.8,5.8,87,0.00,-RA,FEW,0.00,WeatherDisplay:10.37,2013-05-09 09:47:00,
2013-05-09 10:52:00,50.2,46.5,29.18,ESE,122,11.5,11.5,87,0.00,-RA,FEW,0.00,WeatherDisplay:10.37,2013-05-09 09:52:00,
2013-05-09 10:57:00,50.5,46.8,29.18,SE,145,9.2,9.2,87,0.00,-RA,FEW,0.00,WeatherDisplay:10.37,2013-05-09 09:57:00,
2013-05-09 11:02:00,51.3,47.5,29.19,ENE,78,10.1,10.1,87,0.00,BKN,FEW,0.00,WeatherDisplay:10.37,2013-05-09 10:02:00,
2013-05-09 11:08:00,52.0,47.9,29.19,WSW,258,6.9,6.9,86,0.00,BKN,FEW,0.00,WeatherDisplay:10.37,2013-05-09 10:08:00,
2013-05-09 11:13:00,52.9,48.8,29.19,East,100,14.9,14.9,86,0.00,BKN,FEW,0.00,WeatherDisplay:10.37,2013-05-09 10:13:00,
2013-05-09 11:18:00,53.6,49.2,29.19,West,280,6.9,6.9,85,0.00,BKN,FEW,0.00,WeatherDisplay:10.37,2013-05-09 10:18:00,
2013-05-09 11:23:00,54.3,49.3,29.19,WSW,258,11.6,11.6,83,0.00,BKN,FEW,0.00,WeatherDisplay:10.37,2013-05-09 10:23:00,
2013-05-09 11:28:00,54.5,49.4,29.19,SE,145,4.6,5.1,83,0.00,BKN,FEW,0.00,WeatherDisplay:10.37,2013-05-09 10:28:00,
2013-05-09 11:33:00,54.9,48.8,29.19,SE,145,12.7,12.7,80,0.00,BKN,FEW,0.00,WeatherDisplay:10.37,2013-05-09 10:33:00,
2013-05-09 11:38:00,54.1,47.8,29.19,ESE,122,7.2,7.2,79,0.00,BKN,FEW,0.00,WeatherDisplay:10.37,2013-05-09 10:38:00,
2013-05-09 11:43:00,54.3,48.3,29.20,WSW,258,12.7,12.7,80,0.00,BKN,FEW,0.00,WeatherDisplay:10.37,2013-05-09 10:43:00,
2013-05-09 11:48:00,54.5,48.1,29.20,ESE,122,8.1,8.1,79,0.00,BKN,FEW,0.00,WeatherDisplay:10.37,2013-05-09 10:48:00,
2013-05-09 11:53:00,54.3,47.6,29.20,West,280,9.2,9.2,78,0.00,BKN,FEW,0.00,WeatherDisplay:10.37,2013-05-09 10:53:00,
2013-05-09 11:58:00,54.5,47.4,29.20,ESE,122,16.1,16.1,77,0.00,BKN,FEW,0.00,WeatherDisplay:10.37,2013-05-09 10:58:00,
2013-05-09 12:03:00,54.5,46.7,29.23,WNW,302,9.2,9.8,75,0.00,BKN,FEW,0.00,WeatherDisplay:10.37,2013-05-09 11:03:00,
2013-05-09 12:08:00,54.5,46.7,29.23,WNW,302,6.9,9.8,75,0.00,BKN,FEW,0.00,WeatherDisplay:10.37,2013-05-09 11:08:00,
2013-05-09 12:13:00,55.6,48.1,29.23,ESE,122,8.1,8.1,76,0.00,BKN,FEW,0.00,WeatherDisplay:10.37,2013-05-09 11:13:00,
2013-05-09 12:18:00,55.6,47.4,29.23,ESE,122,4.6,6.9,74,0.00,BKN,FEW,0.00,WeatherDisplay:10.37,2013-05-09 11:18:00,
2013-05-09 12:23:00,56.7,48.5,29.23,ESE,122,10.4,10.4,74,0.00,BKN,FEW,0.00,WeatherDisplay:10.37,2013-05-09 11:23:00,
2013-05-09 12:28:00,57.2,47.5,29.23,SSE,168,11.4,11.4,70,0.00,BKN,FEW,0.00,WeatherDisplay:10.37,2013-05-09 11:28:00,
2013-05-09 12:33:00,57.0,47.3,29.23,WSW,258,11.5,11.5,70,0.00,BKN,FEW,0.00,WeatherDisplay:10.37,2013-05-09 11:33:00,
2013-05-09 12:38:00,56.3,46.3,29.23,SE,145,14.6,14.6,69,0.00,BKN,FEW,0.00,WeatherDisplay:10.37,2013-05-09 11:38:00,
2013-05-09 12:43:00,56.3,46.6,29.24,SE,145,13.8,13.8,70,0.00,BKN,FEW,0.00,WeatherDisplay:10.37,2013-05-09 11:43:00,
2013-05-09 12:48:00,56.7,47.4,29.24,SE,145,11.8,11.8,71,0.00,BKN,FEW,0.00,WeatherDisplay:10.37,2013-05-09 11:48:00,
2013-05-09 12:53:00,56.7,47.4,29.24,WSW,258,13.8,13.8,71,0.00,BKN,FEW,0.00,WeatherDisplay:10.37,2013-05-09 11:53:00,
2013-05-09 12:58:00,56.5,46.8,29.24,ESE,122,8.1,8.5,70,0.00,BKN,FEW,0.00,WeatherDisplay:10.37,2013-05-09 11:58:00,
2013-05-09 13:03:00,56.3,47.4,29.25,WNW,302,9.2,9.2,72,0.00,BKN,FEW,0.00,WeatherDisplay:10.37,2013-05-09 12:03:00,
2013-05-09 13:08:00,56.5,47.2,29.25,WSW,258,13.8,13.8,71,0.00,BKN,FEW,0.00,WeatherDisplay:10.37,2013-05-09 12:08:00,
2013-05-09 13:13:00,56.8,47.5,29.25,NNE,32,16.1,16.1,71,0.00,BKN,FEW,0.00,WeatherDisplay:10.37,2013-05-09 12:13:00,
2013-05-09 13:18:00,57.0,48.1,29.25,SE,145,10.4,10.4,72,0.00,BKN,FEW,0.00,WeatherDisplay:10.37,2013-05-09 12:18:00,
2013-05-09 13:23:00,56.7,47.4,29.25,ESE,122,11.5,11.5,71,0.00,BKN,FEW,0.00,WeatherDisplay:10.37,2013-05-09 12:23:00,
2013-05-09 13:28:00,55.8,48.3,29.25,ESE,122,13.8,13.8,76,0.00,BKN,FEW,0.00,WeatherDisplay:10.37,2013-05-09 12:28:00,
2013-05-09 13:33:00,55.4,48.7,29.25,WSW,258,17.3,17.3,78,0.00,BKN,FEW,0.00,WeatherDisplay:10.37,2013-05-09 12:33:00,
2013-05-09 13:38:00,55.6,49.2,29.25,ESE,122,12.9,12.9,79,0.00,BKN,FEW,0.00,WeatherDisplay:10.37,2013-05-09 12:38:00,
2013-05-09 13:43:00,55.8,49.3,29.26,ESE,122,13.8,13.8,79,0.00,BKN,FEW,0.00,WeatherDisplay:10.37,2013-05-09 12:43:00,
2013-05-09 13:48:00,55.9,48.5,29.26,NW,325,9.2,10.1,76,0.00,BKN,FEW,0.00,WeatherDisplay:10.37,2013-05-09 12:48:00,
2013-05-09 13:53:00,55.6,48.1,29.26,WSW,258,10.4,10.4,76,0.00,BKN,FEW,0.00,WeatherDisplay:10.37,2013-05-09 12:53:00,
2013-05-09 13:58:00,55.9,49.2,29.26,SE,145,8.1,8.1,78,0.00,BKN,FEW,0.00,WeatherDisplay:10.37,2013-05-09 12:58:00,
2013-05-09 14:03:00,55.9,49.2,29.27,West,280,6.9,6.9,78,0.00,BKN,FEW,0.00,WeatherDisplay:10.37,2013-05-09 13:03:00,
2013-05-09 14:08:00,56.7,49.9,29.27,WSW,258,9.2,9.2,78,0.00,BKN,FEW,0.00,WeatherDisplay:10.37,2013-05-09 13:08:00,
2013-05-09 14:13:00,56.5,49.0,29.27,ESE,122,18.4,18.4,76,0.00,BKN,FEW,0.00,WeatherDisplay:10.37,2013-05-09 13:13:00,
2013-05-09 14:18:00,56.7,48.8,29.27,SSE,168,11.5,11.5,75,0.00,BKN,FEW,0.00,WeatherDisplay:10.37,2013-05-09 13:18:00,
2013-05-09 14:23:00,56.5,48.3,29.29,SE,145,10.4,10.4,74,0.00,BKN,FEW,0.00,WeatherDisplay:10.37,2013-05-09 13:23:00,
2013-05-09 14:28:00,57.0,49.5,29.29,ESE,122,16.3,16.3,76,0.00,BKN,FEW,0.00,WeatherDisplay:10.37,2013-05-09 13:28:00,
2013-05-09 14:33:00,57.7,49.9,29.29,WSW,258,16.1,16.1,75,0.00,BKN,FEW,0.00,WeatherDisplay:10.37,2013-05-09 13:33:00,
2013-05-09 14:38:00,57.2,49.0,29.29,WSW,258,10.4,10.4,74,0.00,BKN,FEW,0.00,WeatherDisplay:10.37,2013-05-09 13:38:00,
2013-05-09 14:43:00,55.8,47.6,29.30,West,280,17.3,17.3,74,0.03,RA,FEW,0.03,WeatherDisplay:10.37,2013-05-09 13:43:00,
2013-05-09 14:48:00,52.9,45.9,29.30,WSW,258,8.0,9.9,77,0.08,RA,FEW,0.08,WeatherDisplay:10.37,2013-05-09 13:48:00,
2013-05-09 14:53:00,52.2,46.2,29.30,WSW,258,12.8,12.8,80,0.08,RA,FEW,0.08,WeatherDisplay:10.37,2013-05-09 13:53:00,
2013-05-09 14:58:00,52.3,47.6,29.30,SE,145,6.9,7.5,84,0.08,BKN,FEW,0.08,WeatherDisplay:10.37,2013-05-09 13:58:00,
2013-05-09 15:03:00,52.7,48.0,29.34,NNE,32,9.2,9.2,84,0.08,BKN,FEW,0.08,WeatherDisplay:10.37,2013-05-09 14:03:00,
2013-05-09 15:08:00,53.8,50.0,29.34,ESE,122,9.2,9.2,87,0.08,BKN,FEW,0.08,WeatherDisplay:10.37,2013-05-09 14:08:00,
2013-05-09 15:13:00,54.1,50.4,29.34,West,280,12.7,12.7,87,0.08,BKN,FEW,0.08,WeatherDisplay:10.37,2013-05-09 14:13:00,
2013-05-09 15:18:00,54.0,49.6,29.34,WSW,258,11.5,11.5,85,0.08,BKN,FEW,0.08,WeatherDisplay:10.37,2013-05-09 14:18:00,
2013-05-09 15:23:00,53.6,49.5,29.27,WSW,258,24.2,24.2,86,0.11,RA,FEW,0.11,WeatherDisplay:10.37,2013-05-09 14:23:00,
2013-05-09 15:28:00,52.9,48.5,29.27,WSW,258,10.4,10.4,85,0.11,RA,FEW,0.11,WeatherDisplay:10.37,2013-05-09 14:28:00,
2013-05-09 15:33:00,53.2,49.5,29.27,West,280,17.3,17.3,87,0.11,BKN,FEW,0.11,WeatherDisplay:10.37,2013-05-09 14:33:00,
2013-05-09 15:38:00,53.2,49.2,29.27,WSW,258,9.2,9.3,86,0.11,BKN,FEW,0.11,WeatherDisplay:10.37,2013-05-09 14:38:00,
2013-05-09 15:43:00,53.1,49.3,29.27,WSW,258,16.1,16.1,87,0.08,BKN,FEW,0.11,WeatherDisplay:10.37,2013-05-09 14:43:00,
2013-05-09 15:48:00,52.9,49.1,29.27,SE,145,11.5,11.5,87,0.03,BKN,FEW,0.11,WeatherDisplay:10.37,2013-05-09 14:48:00,
2013-05-09 15:53:00,52.7,48.9,29.27,WSW,258,10.4,10.4,87,0.03,BKN,FEW,0.11,WeatherDisplay:10.37,2013-05-09 14:53:00,
2013-05-09 15:58:00,52.9,49.1,29.27,WSW,258,12.3,12.3,87,0.03,BKN,FEW,0.11,WeatherDisplay:10.37,2013-05-09 14:58:00,
2013-05-09 16:03:00,52.9,49.1,29.29,West,280,11.8,11.8,87,0.03,BKN,FEW,0.11,WeatherDisplay:10.37,2013-05-09 15:03:00,
2013-05-09 16:08:00,52.5,48.5,29.29,NE,55,9.2,9.2,86,0.03,BKN,FEW,0.11,WeatherDisplay:10.37,2013-05-09 15:08:00,
2013-05-09 16:13:00,52.2,48.1,29.29,WSW,258,13.8,13.8,86,0.03,BKN,FEW,0.11,WeatherDisplay:10.37,2013-05-09 15:13:00,
2013-05-09 16:18:00,52.0,47.9,29.29,ESE,122,12.7,12.7,86,0.03,BKN,FEW,0.11,WeatherDisplay:10.37,2013-05-09 15:18:00,
2013-05-09 16:23:00,52.0,47.9,29.30,ESE,122,13.8,13.8,86,0.00,BKN,FEW,0.11,WeatherDisplay:10.37,2013-05-09 15:23:00,
2013-05-09 16:28:00,51.6,47.6,29.30,WSW,258,19.6,19.6,86,0.00,BKN,FEW,0.11,WeatherDisplay:10.37,2013-05-09 15:28:00,
2013-05-09 16:33:00,51.4,47.4,29.30,WNW,302,14.2,14.2,86,0.03,RA,FEW,0.14,WeatherDisplay:10.37,2013-05-09 15:33:00,
2013-05-09 16:38:00,51.4,47.4,29.30,ESE,122,11.5,11.5,86,0.03,RA,FEW,0.14,WeatherDisplay:10.37,2013-05-09 15:38:00,
2013-05-09 16:44:00,51.4,47.7,29.31,NW,325,8.5,8.5,87,0.03,BKN,FEW,0.14,WeatherDisplay:10.37,2013-05-09 15:44:00,
2013-05-09 16:49:00,51.3,47.5,29.31,West,280,9.2,9.2,87,0.03,BKN,FEW,0.14,WeatherDisplay:10.37,2013-05-09 15:49:00,
2013-05-09 16:54:00,51.3,47.5,29.31,WSW,258,10.4,10.4,87,0.03,BKN,FEW,0.14,WeatherDisplay:10.37,2013-05-09 15:54:00,
2013-05-09 16:59:00,50.9,47.5,29.31,West,280,11.5,11.5,88,0.03,BKN,FEW,0.14,WeatherDisplay:10.37,2013-05-09 15:59:00,
2013-05-09 17:04:00,50.9,47.5,29.31,WSW,258,11.5,11.5,88,0.06,RA,FEW,0.17,WeatherDisplay:10.37,2013-05-09 16:04:00,
2013-05-09 17:09:00,51.1,47.6,29.31,WSW,258,13.8,13.8,88,0.06,RA,FEW,0.17,WeatherDisplay:10.37,2013-05-09 16:09:00,
2013-05-09 17:14:00,50.9,47.5,29.31,WSW,258,15.0,15.0,88,0.06,BKN,FEW,0.17,WeatherDisplay:10.37,2013-05-09 16:14:00,
2013-05-09 17:19:00,50.7,47.0,29.31,ESE,122,12.7,12.7,87,0.06,BKN,FEW,0.17,WeatherDisplay:10.37,2013-05-09 16:19:00,
2013-05-09 17:24:00,50.5,46.8,29.31,ESE,122,14.2,14.2,87,0.06,BKN,FEW,0.17,WeatherDisplay:10.37,2013-05-09 16:24:00,
2013-05-09 17:29:00,50.5,47.1,29.31,WSW,258,16.5,16.5,88,0.06,BKN,FEW,0.17,WeatherDisplay:10.37,2013-05-09 16:29:00,
2013-05-09 17:34:00,50.2,46.8,29.31,SE,145,9.2,9.2,88,0.03,BKN,FEW,0.17,WeatherDisplay:10.37,2013-05-09 16:34:00,
2013-05-09 17:39:00,50.5,47.1,29.31,West,280,11.5,11.5,88,0.03,BKN,FEW,0.17,WeatherDisplay:10.37,2013-05-09 16:39:00,
2013-05-09 17:44:00,50.5,46.8,29.34,West,280,10.9,10.9,87,0.03,BKN,FEW,0.17,WeatherDisplay:10.37,2013-05-09 16:44:00,
2013-05-09 17:49:00,50.2,46.5,29.34,WSW,258,12.7,12.7,87,0.03,BKN,FEW,0.17,WeatherDisplay:10.37,2013-05-09 16:49:00,
2013-05-09 17:54:00,50.5,46.8,29.34,West,280,15.0,15.0,87,0.03,BKN,FEW,0.17,WeatherDisplay:10.37,2013-05-09 16:54:00,
2013-05-09 17:59:00,50.5,46.8,29.34,WSW,258,10.9,10.9,87,0.03,BKN,FEW,0.17,WeatherDisplay:10.37,2013-05-09 16:59:00,
2013-05-09 18:04:00,50.5,46.8,29.33,WSW,258,9.2,9.2,87,0.00,BKN,FEW,0.17,WeatherDisplay:10.37,2013-05-09 17:04:00,
2013-05-09 18:09:00,50.7,47.0,29.33,WSW,258,16.1,16.1,87,0.00,BKN,FEW,0.17,WeatherDisplay:10.37,2013-05-09 17:09:00,
2013-05-09 18:14:00,51.3,47.2,29.33,WSW,258,5.8,7.7,86,0.00,BKN,FEW,0.17,WeatherDisplay:10.37,2013-05-09 17:14:00,
2013-05-09 18:19:00,51.1,47.0,29.33,West,280,12.7,12.7,86,0.00,BKN,FEW,0.17,WeatherDisplay:10.37,2013-05-09 17:19:00,
2013-05-09 18:24:00,51.3,47.2,29.35,WSW,258,12.7,12.7,86,0.00,BKN,FEW,0.17,WeatherDisplay:10.37,2013-05-09 17:24:00,
2013-05-09 18:29:00,51.3,46.9,29.35,West,280,17.3,17.3,85,0.00,BKN,FEW,0.17,WeatherDisplay:10.37,2013-05-09 17:29:00,
2013-05-09 18:34:00,51.3,46.6,29.35,West,280,12.7,12.7,84,0.00,BKN,FEW,0.17,WeatherDisplay:10.37,2013-05-09 17:34:00,
2013-05-09 18:39:00,51.6,46.9,29.35,West,280,20.7,20.7,84,0.00,BKN,FEW,0.17,WeatherDisplay:10.37,2013-05-09 17:39:00,
2013-05-09 18:44:00,51.4,46.4,29.36,ESE,122,20.5,20.5,83,0.00,BKN,FEW,0.17,WeatherDisplay:10.37,2013-05-09 17:44:00,
2013-05-09 18:49:00,51.1,46.4,29.36,WSW,258,13.8,13.8,84,0.00,BKN,FEW,0.17,WeatherDisplay:10.37,2013-05-09 17:49:00,
2013-05-09 18:54:00,50.9,46.2,29.36,West,280,15.0,15.0,84,0.00,BKN,FEW,0.17,WeatherDisplay:10.37,2013-05-09 17:54:00,
2013-05-09 18:59:00,51.3,46.6,29.36,West,280,23.0,23.0,84,0.00,BKN,FEW,0.17,WeatherDisplay:10.37,2013-05-09 17:59:00,
2013-05-09 19:04:00,51.3,46.6,29.38,WSW,258,8.1,8.7,84,0.00,BKN,FEW,0.17,WeatherDisplay:10.37,2013-05-09 18:04:00,
2013-05-09 19:09:00,51.3,46.3,29.38,ESE,122,10.4,10.4,83,0.00,BKN,FEW,0.17,WeatherDisplay:10.37,2013-05-09 18:09:00,
2013-05-09 19:14:00,51.4,46.4,29.38,WSW,258,6.9,9.3,83,0.00,BKN,FEW,0.17,WeatherDisplay:10.37,2013-05-09 18:14:00,
2013-05-09 19:19:00,51.3,46.6,29.38,WSW,258,12.7,12.7,84,0.00,BKN,FEW,0.17,WeatherDisplay:10.37,2013-05-09 18:19:00,
2013-05-09 19:24:00,50.9,46.2,29.39,ESE,122,16.1,16.1,84,0.00,BKN,FEW,0.17,WeatherDisplay:10.37,2013-05-09 18:24:00,
2013-05-09 19:29:00,50.7,46.1,29.39,WSW,258,31.1,31.1,84,0.00,BKN,FEW,0.17,WeatherDisplay:10.37,2013-05-09 18:29:00,
2013-05-09 19:34:00,50.7,46.4,29.39,WSW,258,11.5,11.5,85,0.00,BKN,FEW,0.17,WeatherDisplay:10.37,2013-05-09 18:34:00,
2013-05-09 19:39:00,50.5,46.2,29.39,WSW,258,13.8,13.8,85,0.00,BKN,FEW,0.17,WeatherDisplay:10.37,2013-05-09 18:39:00,
2013-05-09 19:44:00,50.4,46.0,29.41,WNW,302,13.0,13.0,85,0.00,BKN,FEW,0.17,WeatherDisplay:10.37,2013-05-09 18:44:00,
2013-05-09 19:49:00,50.2,45.8,29.41,SSE,168,8.1,9.3,85,0.00,BKN,FEW,0.17,WeatherDisplay:10.37,2013-05-09 18:49:00,
2013-05-09 19:54:00,50.2,45.8,29.41,WSW,258,5.8,8.0,85,0.00,BKN,FEW,0.17,WeatherDisplay:10.37,2013-05-09 18:54:00,
2013-05-09 19:59:00,50.0,45.7,29.41,WSW,258,11.5,11.5,85,0.00,BKN,FEW,0.17,WeatherDisplay:10.37,2013-05-09 18:59:00,
2013-05-09 20:04:00,50.2,45.8,29.41,WSW,258,8.1,8.1,85,0.00,BKN,FEW,0.17,WeatherDisplay:10.37,2013-05-09 19:04:00,
2013-05-09 20:09:00,50.0,45.7,29.41,NW,325,21.9,21.9,85,0.00,BKN,FEW,0.17,WeatherDisplay:10.37,2013-05-09 19:09:00,
2013-05-09 20:14:00,50.2,45.8,29.41,WSW,258,8.1,8.6,85,0.00,BKN,FEW,0.17,WeatherDisplay:10.37,2013-05-09 19:14:00,
2013-05-09 20:19:00,50.0,45.7,29.41,ESE,122,12.7,12.7,85,0.00,BKN,FEW,0.17,WeatherDisplay:10.37,2013-05-09 19:19:00,
2013-05-09 20:24:00,50.0,45.7,29.43,WSW,258,11.5,11.5,85,0.00,BKN,FEW,0.17,WeatherDisplay:10.37,2013-05-09 19:24:00,
2013-05-09 20:29:00,49.8,45.5,29.43,ESE,122,18.4,18.4,85,0.00,BKN,FEW,0.17,WeatherDisplay:10.37,2013-05-09 19:29:00,
2013-05-09 20:34:00,49.8,45.5,29.43,WSW,258,19.8,19.8,85,0.00,BKN,FEW,0.17,WeatherDisplay:10.37,2013-05-09 19:34:00,
2013-05-09 20:39:00,50.0,45.7,29.43,WSW,258,12.7,12.7,85,0.00,BKN,FEW,0.17,WeatherDisplay:10.37,2013-05-09 19:39:00,
2013-05-09 20:44:00,49.8,45.5,29.43,West,280,13.8,13.8,85,0.00,BKN,FEW,0.17,WeatherDisplay:10.37,2013-05-09 19:44:00,
2013-05-09 20:49:00,49.8,45.5,29.43,West,280,12.7,12.7,85,0.00,BKN,FEW,0.17,WeatherDisplay:10.37,2013-05-09 19:49:00,
2013-05-09 20:54:00,49.8,45.5,29.43,WSW,258,13.8,13.8,85,0.00,BKN,FEW,0.17,WeatherDisplay:10.37,2013-05-09 19:54:00,
2013-05-09 20:59:00,49.8,45.5,29.43,WSW,258,15.1,15.1,85,0.00,BKN,FEW,0.17,WeatherDisplay:10.37,2013-05-09 19:59:00,
2013-05-09 21:04:00,49.8,45.8,29.46,WSW,258,18.4,18.4,86,0.00,BKN,FEW,0.17,WeatherDisplay:10.37,2013-05-09 20:04:00,
2013-05-09 21:09:00,49.8,45.5,29.46,WSW,258,13.8,13.8,85,0.00,BKN,FEW,0.17,WeatherDisplay:10.37,2013-05-09 20:09:00,
2013-05-09 21:14:00,49.8,45.5,29.46,WSW,258,9.2,9.2,85,0.00,BKN,FEW,0.17,WeatherDisplay:10.37,2013-05-09 20:14:00,
2013-05-09 21:19:00,49.6,45.3,29.46,WSW,258,12.7,12.7,85,0.00,BKN,FEW,0.17,WeatherDisplay:10.37,2013-05-09 20:19:00,
2013-05-09 21:24:00,49.8,45.5,29.46,WSW,258,10.4,10.4,85,0.00,BKN,FEW,0.17,WeatherDisplay:10.37,2013-05-09 20:24:00,
2013-05-09 21:29:00,49.8,45.5,29.46,WSW,258,10.4,10.4,85,0.00,BKN,FEW,0.17,WeatherDisplay:10.37,2013-05-09 20:29:00,
2013-05-09 21:34:00,49.8,45.5,29.46,West,280,9.2,9.2,85,0.00,BKN,FEW,0.17,WeatherDisplay:10.37,2013-05-09 20:34:00,
2013-05-09 21:39:00,49.8,45.5,29.46,North,10,6.9,8.0,85,0.00,BKN,FEW,0.17,WeatherDisplay:10.37,2013-05-09 20:39:00,
2013-05-09 21:44:00,49.8,45.5,29.47,WSW,258,11.5,11.5,85,0.00,BKN,FEW,0.17,WeatherDisplay:10.37,2013-05-09 20:44:00,
2013-05-09 21:50:00,49.8,45.5,29.47,WSW,258,13.2,13.2,85,0.00,BKN,FEW,0.17,WeatherDisplay:10.37,2013-05-09 20:50:00,
2013-05-09 21:55:00,49.8,45.5,29.47,West,280,10.4,10.4,85,0.00,BKN,FEW,0.17,WeatherDisplay:10.37,2013-05-09 20:55:00,
2013-05-09 22:00:00,49.8,45.5,29.47,WSW,258,15.0,15.0,85,0.00,BKN,FEW,0.17,WeatherDisplay:10.37,2013-05-09 21:00:00,
2013-05-09 22:05:00,49.8,45.5,29.48,West,280,8.1,8.1,85,0.00,BKN,FEW,0.17,WeatherDisplay:10.37,2013-05-09 21:05:00,
2013-05-09 22:10:00,49.6,45.3,29.48,ESE,122,12.7,12.7,85,0.00,BKN,FEW,0.17,WeatherDisplay:10.37,2013-05-09 21:10:00,
2013-05-09 22:15:00,49.6,45.3,29.48,West,280,15.0,15.0,85,0.00,BKN,FEW,0.17,WeatherDisplay:10.37,2013-05-09 21:15:00,
2013-05-09 22:20:00,49.8,45.5,29.48,WSW,258,17.3,17.3,85,0.00,BKN,FEW,0.17,WeatherDisplay:10.37,2013-05-09 21:20:00,
2013-05-09 22:25:00,49.8,45.5,29.50,WSW,258,11.5,11.5,85,0.00,BKN,FEW,0.17,WeatherDisplay:10.37,2013-05-09 21:25:00,
2013-05-09 22:30:00,49.8,45.5,29.50,WNW,302,18.4,18.4,85,0.00,BKN,FEW,0.17,WeatherDisplay:10.37,2013-05-09 21:30:00,
2013-05-09 22:35:00,49.8,45.5,29.50,West,280,15.0,15.0,85,0.00,BKN,FEW,0.17,WeatherDisplay:10.37,2013-05-09 21:35:00,
2013-05-09 22:40:00,49.5,45.1,29.50,South,190,9.2,9.2,85,0.00,BKN,FEW,0.17,WeatherDisplay:10.37,2013-05-09 21:40:00,
2013-05-09 22:45:00,49.5,45.1,29.51,WSW,258,11.7,11.7,85,0.00,BKN,FEW,0.17,WeatherDisplay:10.37,2013-05-09 21:45:00,
2013-05-09 22:50:00,49.5,45.1,29.51,WSW,258,9.2,9.2,85,0.00,BKN,FEW,0.17,WeatherDisplay:10.37,2013-05-09 21:50:00,
2013-05-09 22:55:00,49.5,45.1,29.51,West,280,12.7,12.7,85,0.00,BKN,FEW,0.17,WeatherDisplay:10.37,2013-05-09 21:55:00,
2013-05-09 23:00:00,49.5,45.1,29.51,WSW,258,11.5,11.5,85,0.00,BKN,FEW,0.17,WeatherDisplay:10.37,2013-05-09 22:00:00,
2013-05-09 23:05:00,49.5,45.1,29.54,WSW,258,10.5,10.5,85,0.00,BKN,FEW,0.17,WeatherDisplay:10.37,2013-05-09 22:05:00,
2013-05-09 23:10:00,49.5,45.1,29.54,WSW,258,5.8,6.3,85,0.00,BKN,FEW,0.17,WeatherDisplay:10.37,2013-05-09 22:10:00,
2013-05-09 23:15:00,49.5,45.1,29.54,WSW,258,8.1,8.1,85,0.00,BKN,FEW,0.17,WeatherDisplay:10.37,2013-05-09 22:15:00,
2013-05-09 23:20:00,49.5,45.1,29.54,WSW,258,15.2,15.2,85,0.00,BKN,FEW,0.17,WeatherDisplay:10.37,2013-05-09 22:20:00,
2013-05-09 23:25:00,49.5,45.1,29.53,WSW,258,11.5,11.5,85,0.00,BKN,FEW,0.17,WeatherDisplay:10.37,2013-05-09 22:25:00,
2013-05-09 23:30:00,49.5,45.4,29.53,ESE,122,13.8,13.8,86,0.00,BKN,FEW,0.17,WeatherDisplay:10.37,2013-05-09 22:30:00,
2013-05-09 23:35:00,49.3,45.3,29.53,WSW,258,5.8,6.6,86,0.00,BKN,FEW,0.17,WeatherDisplay:10.37,2013-05-09 22:35:00,
2013-05-09 23:40:00,49.3,45.3,29.53,WSW,258,6.9,6.9,86,0.00,BKN,FEW,0.17,WeatherDisplay:10.37,2013-05-09 22:40:00,
2013-05-09 23:45:00,49.3,45.3,29.54,ESE,122,8.3,8.3,86,0.00,BKN,FEW,0.17,WeatherDisplay:10.37,2013-05-09 22:45:00,
2013-05-09 23:50:00,49.3,45.3,29.54,WSW,258,4.6,5.8,86,0.00,BKN,FEW,0.17,WeatherDisplay:10.37,2013-05-09 22:50:00,
2013-05-09 23:55:00,49.5,45.4,29.54,WSW,258,4.6,5.2,86,0.00,BKN,FEW,0.17,WeatherDisplay:10.37,2013-05-09 22:55:00,